createdAt,value
2019-06-27T00:02:25.417Z,8.10
2019-06-27T00:04:53.638Z,8.90
2019-06-27T00:07:21.841Z,8.63
2019-06-27T00:09:50.059Z,8.80
2019-06-27T00:12:18.368Z,8.40
2019-06-27T00:14:46.560Z,9.15
2019-06-27T00:17:14.789Z,8.50
2019-06-27T00:19:43.090Z,9.00
2019-06-27T00:22:11.296Z,9.20
2019-06-27T00:24:39.487Z,9.45
2019-06-27T00:27:07.702Z,9.20
2019-06-27T00:29:35.913Z,9.73
2019-06-27T00:32:04.130Z,9.73
2019-06-27T00:34:32.341Z,10.20
2019-06-27T00:37:00.564Z,9.00
2019-06-27T00:39:28.768Z,9.33
2019-06-27T00:41:56.999Z,9.93
2019-06-27T00:44:25.239Z,9.60
2019-06-27T00:46:53.464Z,9.10
2019-06-27T00:49:21.691Z,9.30
2019-06-27T00:51:49.924Z,8.20
2019-06-27T00:54:18.125Z,7.37
2019-06-27T00:56:46.349Z,8.73
2019-06-27T00:59:14.553Z,8.33
2019-06-27T01:01:42.765Z,8.33
2019-06-27T01:04:10.962Z,7.93
2019-06-27T01:06:39.172Z,7.90
2019-06-27T01:09:07.432Z,7.50
2019-06-27T01:11:35.638Z,7.83
2019-06-27T01:14:04.181Z,7.80
2019-06-27T01:16:32.390Z,7.03
2019-06-27T01:19:00.777Z,7.10
2019-06-27T01:21:28.989Z,8.00
2019-06-27T01:23:57.213Z,7.37
2019-06-27T01:26:25.392Z,7.07
2019-06-27T01:28:53.659Z,7.25
2019-06-27T01:31:21.858Z,7.95
2019-06-27T01:33:50.082Z,7.40
2019-06-27T01:36:18.251Z,8.20
2019-06-27T01:38:46.525Z,7.45
2019-06-27T01:41:14.783Z,7.50
2019-06-27T01:43:42.973Z,6.60
2019-06-27T01:46:11.162Z,6.90
2019-06-27T01:48:39.337Z,7.00
2019-06-27T01:51:07.568Z,6.57
2019-06-27T01:53:35.813Z,7.37
2019-06-27T01:56:04.037Z,6.25
2019-06-27T01:58:32.242Z,5.40
2019-06-27T02:01:00.452Z,5.60
2019-06-27T02:03:28.667Z,5.75
2019-06-27T02:05:56.848Z,5.80
2019-06-27T02:08:25.070Z,6.55
2019-06-27T02:10:53.251Z,6.25
2019-06-27T02:13:21.435Z,6.00
2019-06-27T02:15:49.679Z,5.40
2019-06-27T02:18:17.902Z,5.30
2019-06-27T02:20:46.093Z,5.33
2019-06-27T02:23:16.019Z,5.27
2019-06-27T02:25:44.197Z,4.70
2019-06-27T02:28:12.393Z,4.73
2019-06-27T02:30:41.769Z,4.60
2019-06-27T02:33:09.975Z,4.80
2019-06-27T02:35:38.295Z,4.80
2019-06-27T02:38:06.485Z,5.23
2019-06-27T02:40:34.886Z,4.37
2019-06-27T02:43:03.053Z,4.70
2019-06-27T02:45:31.241Z,5.10
2019-06-27T02:47:59.479Z,4.70
2019-06-27T02:50:27.750Z,4.67
2019-06-27T02:52:55.931Z,5.10
2019-06-27T02:55:24.159Z,5.33
2019-06-27T02:57:52.433Z,5.27
2019-06-27T03:00:20.723Z,4.10
2019-06-27T03:02:48.922Z,4.60
2019-06-27T03:05:17.306Z,4.60
2019-06-27T03:07:45.513Z,4.90
2019-06-27T03:10:14.862Z,4.63
2019-06-27T03:12:43.045Z,5.20
2019-06-27T03:15:12.734Z,5.13
2019-06-27T03:17:40.935Z,4.63
2019-06-27T03:22:36.450Z,4.70
2019-06-27T03:25:04.901Z,5.10
2019-06-27T03:27:33.110Z,4.80
2019-06-27T03:30:01.298Z,4.70
2019-06-27T03:32:29.509Z,4.27
2019-06-27T03:34:57.713Z,5.00
2019-06-27T03:37:25.891Z,4.97
2019-06-27T03:39:54.068Z,5.00
2019-06-27T03:42:22.277Z,4.57
2019-06-27T03:44:50.492Z,4.90
2019-06-27T03:47:18.669Z,4.80
2019-06-27T03:49:46.843Z,4.97
2019-06-27T03:52:15.038Z,4.20
2019-06-27T03:54:43.307Z,4.90
2019-06-27T03:57:11.488Z,4.80
2019-06-27T03:59:39.688Z,4.70
2019-06-27T04:02:07.869Z,4.90
2019-06-27T04:04:36.066Z,4.53
2019-06-27T04:07:04.261Z,4.20
2019-06-27T04:09:32.439Z,4.40
2019-06-27T04:12:00.635Z,4.23
2019-06-27T04:14:28.896Z,4.07
2019-06-27T04:16:57.081Z,4.57
2019-06-27T04:19:25.258Z,4.10
2019-06-27T04:21:53.520Z,4.00
2019-06-27T04:24:21.700Z,5.33
2019-06-27T04:26:49.876Z,4.30
2019-06-27T04:29:33.032Z,4.23
2019-06-27T04:31:47.940Z,4.10
2019-06-27T04:34:19.548Z,4.20
2019-06-27T04:36:46.046Z,4.33
2019-06-27T04:39:14.318Z,4.60
2019-06-27T04:41:42.514Z,4.50
2019-06-27T04:44:10.716Z,4.50
2019-06-27T04:46:39.060Z,4.13
2019-06-27T04:49:12.778Z,4.57
2019-06-27T04:51:37.167Z,4.87
2019-06-27T04:54:05.413Z,4.60
2019-06-27T04:56:33.598Z,4.30
2019-06-27T04:59:01.824Z,4.20
2019-06-27T05:01:30.058Z,5.00
2019-06-27T05:03:58.262Z,4.63
2019-06-27T05:06:26.445Z,4.27
2019-06-27T05:08:54.666Z,4.03
2019-06-27T05:11:22.833Z,4.37
2019-06-27T05:13:51.020Z,4.40
2019-06-27T05:16:19.207Z,4.90
2019-06-27T05:18:47.385Z,4.20
2019-06-27T05:21:15.594Z,3.80
2019-06-27T05:23:43.798Z,5.00
2019-06-27T05:26:12.018Z,3.80
2019-06-27T05:28:40.226Z,4.73
2019-06-27T05:31:08.402Z,4.97
2019-06-27T05:33:36.617Z,4.40
2019-06-27T05:36:04.837Z,4.20
2019-06-27T05:38:33.030Z,4.37
2019-06-27T05:41:01.277Z,4.13
2019-06-27T05:43:29.516Z,4.80
2019-06-27T05:45:57.708Z,4.00
2019-06-27T05:48:25.924Z,4.40
2019-06-27T05:50:54.145Z,4.87
2019-06-27T05:53:22.318Z,4.00
2019-06-27T05:55:50.890Z,4.53
2019-06-27T05:58:19.115Z,4.60
2019-06-27T06:00:47.321Z,4.20
2019-06-27T06:03:15.733Z,4.93
2019-06-27T06:05:43.954Z,4.50
2019-06-27T06:08:12.212Z,4.70
2019-06-27T06:10:40.437Z,4.60
2019-06-27T06:13:08.649Z,4.27
2019-06-27T06:15:36.824Z,4.40
2019-06-27T06:18:05.020Z,4.40
2019-06-27T06:20:33.199Z,4.27
2019-06-27T06:23:01.428Z,4.50
2019-06-27T06:25:29.625Z,3.80
2019-06-27T06:27:57.792Z,4.10
2019-06-27T06:30:26.049Z,4.30
2019-06-27T06:32:54.224Z,4.00
2019-06-27T06:35:22.421Z,4.60
2019-06-27T06:37:50.643Z,4.40
2019-06-27T06:40:19.060Z,4.20
2019-06-27T06:42:47.247Z,4.27
2019-06-27T06:45:15.469Z,4.20
2019-06-27T06:47:45.241Z,4.00
2019-06-27T06:50:13.454Z,4.60
2019-06-27T06:52:41.732Z,4.00
2019-06-27T06:55:10.101Z,3.27
2019-06-27T06:57:38.296Z,3.80
2019-06-27T07:00:08.059Z,4.00
2019-06-27T07:02:36.308Z,3.87
2019-06-27T07:05:05.293Z,4.13
2019-06-27T07:07:33.513Z,4.00
2019-06-27T07:10:01.761Z,2.90
2019-06-27T07:12:30.061Z,3.23
2019-06-27T07:14:58.228Z,3.33
2019-06-27T07:17:26.408Z,3.60
2019-06-27T07:19:57.502Z,4.50
2019-06-27T07:22:24.530Z,4.00
2019-06-27T07:24:52.786Z,3.83
2019-06-27T07:27:21.039Z,3.87
2019-06-27T07:29:49.220Z,3.83
2019-06-27T07:32:17.429Z,4.07
2019-06-27T07:34:45.638Z,3.77
2019-06-27T07:37:13.844Z,4.00
2019-06-27T07:39:42.102Z,4.17
2019-06-27T07:42:10.301Z,3.63
2019-06-27T07:44:38.514Z,3.63
2019-06-27T07:47:06.717Z,3.70
2019-06-27T07:49:35.000Z,4.27
2019-06-27T07:52:03.434Z,3.80
2019-06-27T07:54:31.911Z,3.67
2019-06-27T07:57:00.098Z,4.13
2019-06-27T07:59:28.268Z,3.67
2019-06-27T08:01:56.499Z,3.43
2019-06-27T08:04:24.774Z,3.87
2019-06-27T08:06:53.063Z,3.60
2019-06-27T08:09:21.278Z,3.67
2019-06-27T08:11:49.568Z,4.23
2019-06-27T08:14:17.780Z,3.77
2019-06-27T08:16:45.985Z,3.67
2019-06-27T08:24:09.001Z,3.80
2019-06-27T08:26:37.205Z,3.77
2019-06-27T08:29:05.401Z,3.80
2019-06-27T08:34:00.966Z,3.70
2019-06-27T08:36:29.231Z,4.00
2019-06-27T08:38:57.430Z,4.10
2019-06-27T08:41:25.633Z,4.35
2019-06-27T08:43:53.833Z,4.20
2019-06-27T08:48:49.503Z,3.50
2019-06-27T08:51:17.752Z,3.50
2019-06-27T08:53:45.936Z,4.47
2019-06-27T08:56:14.157Z,3.63
2019-06-27T08:58:42.369Z,4.07
2019-06-27T09:01:10.634Z,3.80
2019-06-27T09:03:38.909Z,3.73
2019-06-27T09:06:07.997Z,3.70
2019-06-27T09:08:36.184Z,3.90
2019-06-27T09:11:04.359Z,3.30
2019-06-27T09:13:32.546Z,3.50
2019-06-27T09:16:00.728Z,3.77
2019-06-27T09:18:28.928Z,3.60
2019-06-27T09:20:57.104Z,3.60
2019-06-27T09:23:25.323Z,4.03
2019-06-27T09:25:53.536Z,4.33
2019-06-27T09:28:21.772Z,4.10
2019-06-27T09:30:50.236Z,4.23
2019-06-27T09:33:18.434Z,4.93
2019-06-27T09:35:46.629Z,4.30
2019-06-27T09:38:14.804Z,4.03
2019-06-27T09:40:43.012Z,3.80
2019-06-27T09:43:11.230Z,4.10
2019-06-27T09:45:39.429Z,4.37
2019-06-27T09:48:07.625Z,4.33
2019-06-27T09:50:35.892Z,4.27
2019-06-27T09:53:04.277Z,4.20
2019-06-27T09:55:32.452Z,4.33
2019-06-27T09:58:00.631Z,4.33
2019-06-27T10:00:28.929Z,4.00
2019-06-27T10:02:57.136Z,3.60
2019-06-27T10:05:25.366Z,4.10
2019-06-27T10:07:53.593Z,4.27
2019-06-27T10:10:21.813Z,4.20
2019-06-27T10:12:50.017Z,4.30
2019-06-27T10:15:19.067Z,4.43
2019-06-27T10:17:47.269Z,4.00
2019-06-27T10:20:15.727Z,4.30
2019-06-27T10:22:43.908Z,4.33
2019-06-27T10:25:12.174Z,4.57
2019-06-27T10:27:40.414Z,3.63
2019-06-27T10:30:08.960Z,4.30
2019-06-27T10:32:37.151Z,4.20
2019-06-27T10:35:06.868Z,3.93
2019-06-27T10:37:35.084Z,3.97
2019-06-27T10:40:04.710Z,3.73
2019-06-27T10:42:33.901Z,4.50
2019-06-27T10:45:02.508Z,4.00
2019-06-27T10:47:30.692Z,4.13
2019-06-27T10:49:58.873Z,4.10
2019-06-27T10:52:27.127Z,4.60
2019-06-27T10:54:55.395Z,4.40
2019-06-27T10:57:23.569Z,4.30
2019-06-27T10:59:51.759Z,4.37
2019-06-27T11:02:19.952Z,3.93
2019-06-27T11:04:48.172Z,4.00
2019-06-27T11:07:16.382Z,4.17
2019-06-27T11:09:44.553Z,3.87
2019-06-27T11:12:12.796Z,3.87
2019-06-27T11:14:41.035Z,3.63
2019-06-27T11:17:09.204Z,3.50
2019-06-27T11:19:51.549Z,4.17
2019-06-27T11:22:10.581Z,3.80
2019-06-27T11:24:38.827Z,3.87
2019-06-27T11:27:07.073Z,4.27
2019-06-27T11:29:35.322Z,3.97
2019-06-27T11:32:03.496Z,3.93
2019-06-27T11:34:34.848Z,3.80
2019-06-27T11:37:01.548Z,3.50
2019-06-27T11:39:29.798Z,4.03
2019-06-27T11:41:57.973Z,4.00
2019-06-27T11:44:26.185Z,4.00
2019-06-27T11:46:54.403Z,3.90
2019-06-27T11:49:22.613Z,3.73
2019-06-27T11:51:50.792Z,4.10
2019-06-27T11:54:18.975Z,3.83
2019-06-27T11:56:47.213Z,3.60
2019-06-27T11:59:15.400Z,4.03
2019-06-27T12:01:43.836Z,3.53
2019-06-27T12:04:13.521Z,4.20
2019-06-27T12:06:41.774Z,4.00
2019-06-27T12:09:10.032Z,4.10
2019-06-27T12:11:38.238Z,3.97
2019-06-27T12:14:06.445Z,3.63
2019-06-27T12:16:34.621Z,3.53
2019-06-27T12:19:02.818Z,3.47
2019-06-27T12:21:31.037Z,3.70
2019-06-27T12:23:59.208Z,3.70
2019-06-27T12:26:27.396Z,3.50
2019-06-27T12:28:55.585Z,3.60
2019-06-27T12:31:24.130Z,3.73
2019-06-27T12:34:06.203Z,3.20
2019-06-27T12:36:22.196Z,3.40
2019-06-27T12:38:50.374Z,2.80
2019-06-27T12:41:18.584Z,3.00
2019-06-27T12:43:46.792Z,3.13
2019-06-27T12:46:15.003Z,3.37
2019-06-27T12:48:43.287Z,2.80
2019-06-27T12:51:11.464Z,2.90
2019-06-27T12:53:39.680Z,3.40
2019-06-27T12:56:07.968Z,2.90
2019-06-27T12:58:36.136Z,2.83
2019-06-27T13:01:04.340Z,3.20
2019-06-27T13:03:32.546Z,3.00
2019-06-27T13:06:00.722Z,3.13
2019-06-27T13:08:28.930Z,2.93
2019-06-27T13:10:57.096Z,2.90
2019-06-27T13:13:25.304Z,3.13
2019-06-27T13:15:53.512Z,2.77
2019-06-27T13:18:21.794Z,2.70
2019-06-27T13:20:57.795Z,2.80
2019-06-27T13:23:19.981Z,2.83
2019-06-27T13:25:48.152Z,2.70
2019-06-27T13:28:16.373Z,2.80
2019-06-27T13:30:44.562Z,2.80
2019-06-27T13:33:12.731Z,2.63
2019-06-27T13:35:40.920Z,2.63
2019-06-27T13:38:09.172Z,2.90
2019-06-27T13:40:37.402Z,2.50
2019-06-27T13:43:05.580Z,2.60
2019-06-27T13:45:33.752Z,2.53
2019-06-27T13:48:01.953Z,2.37
2019-06-27T13:50:30.169Z,2.60
2019-06-27T13:52:58.435Z,2.80
2019-06-27T13:55:26.669Z,2.43
2019-06-27T13:57:57.446Z,2.80
2019-06-27T14:00:29.340Z,2.87
2019-06-27T14:02:57.712Z,2.40
2019-06-27T14:05:25.880Z,2.57
2019-06-27T14:07:54.075Z,2.77
2019-06-27T14:10:22.280Z,2.50
2019-06-27T14:12:50.459Z,2.40
2019-06-27T14:15:18.839Z,2.33
2019-06-27T14:17:47.049Z,2.40
2019-06-27T14:20:15.214Z,2.43
2019-06-27T14:22:43.439Z,2.40
2019-06-27T14:25:11.612Z,2.70
2019-06-27T14:27:39.781Z,2.70
2019-06-27T14:30:08.136Z,2.20
2019-06-27T14:32:36.397Z,2.10
2019-06-27T14:35:15.239Z,2.03
2019-06-27T14:37:36.390Z,2.33
2019-06-27T14:40:08.383Z,2.10
2019-06-27T14:42:36.649Z,1.90
2019-06-27T14:45:05.605Z,2.07
2019-06-27T14:47:33.887Z,2.50
2019-06-27T14:50:02.319Z,2.00
2019-06-27T14:52:33.924Z,2.30
2019-06-27T14:55:00.486Z,2.07
2019-06-27T14:57:28.683Z,2.20
2019-06-27T14:59:56.898Z,2.70
2019-06-27T15:02:25.100Z,2.63
2019-06-27T15:04:53.295Z,2.70
2019-06-27T15:07:21.551Z,2.50
2019-06-27T15:09:49.745Z,2.33
2019-06-27T15:12:18.051Z,2.50
2019-06-27T15:14:49.494Z,2.30
2019-06-27T15:17:16.205Z,2.57
2019-06-27T15:19:45.365Z,2.83
2019-06-27T15:22:16.123Z,2.60
2019-06-27T15:24:44.308Z,2.43
2019-06-27T15:27:12.521Z,2.23
2019-06-27T15:29:40.737Z,2.40
2019-06-27T15:32:08.939Z,1.97
2019-06-27T15:34:37.133Z,2.40
2019-06-27T15:37:05.400Z,2.33
2019-06-27T15:39:33.605Z,2.43
2019-06-27T15:42:01.865Z,2.50
2019-06-27T15:44:30.065Z,2.43
2019-06-27T15:46:59.026Z,2.40
2019-06-27T15:49:30.094Z,2.70
2019-06-27T15:51:59.681Z,2.87
2019-06-27T15:54:27.019Z,2.50
2019-06-27T15:56:55.195Z,2.60
2019-06-27T15:59:23.417Z,2.63
2019-06-27T16:01:51.630Z,3.00
2019-06-27T16:04:32.464Z,2.73
2019-06-27T16:06:49.750Z,2.33
2019-06-27T16:09:18.006Z,2.53
2019-06-27T16:11:46.188Z,2.43
2019-06-27T16:14:14.357Z,2.30
2019-06-27T16:16:42.539Z,2.43
2019-06-27T16:19:10.768Z,2.80
2019-06-27T16:21:39.005Z,2.60
2019-06-27T16:24:07.176Z,2.83
2019-06-27T16:26:35.362Z,2.40
2019-06-27T16:29:03.533Z,2.60
2019-06-27T16:31:31.724Z,2.57
2019-06-27T16:34:00.851Z,3.50
2019-06-27T16:36:29.137Z,2.80
2019-06-27T16:38:57.319Z,2.50
2019-06-27T16:41:25.523Z,2.30
2019-06-27T16:43:54.276Z,2.60
2019-06-27T16:46:22.478Z,2.70
2019-06-27T16:48:50.665Z,2.83
2019-06-27T16:51:20.557Z,2.70
2019-06-27T16:53:48.968Z,2.70
2019-06-27T16:56:17.194Z,2.60
2019-06-27T16:58:45.394Z,2.50
2019-06-27T17:01:13.596Z,2.70
2019-06-27T17:03:41.788Z,2.77
2019-06-27T17:06:09.959Z,2.10
2019-06-27T17:08:38.181Z,2.40
2019-06-27T17:11:06.437Z,2.40
2019-06-27T17:13:34.666Z,3.40
2019-06-27T17:16:02.932Z,2.80
2019-06-27T17:18:31.169Z,2.73
2019-06-27T17:20:59.539Z,2.70
2019-06-27T17:23:27.741Z,2.43
2019-06-27T17:25:56.523Z,2.40
2019-06-27T17:28:24.711Z,2.50
2019-06-27T17:30:52.985Z,2.17
2019-06-27T17:33:21.189Z,2.40
2019-06-27T17:35:52.405Z,2.10
2019-06-27T17:38:20.609Z,2.40
2019-06-27T17:40:48.809Z,2.60
2019-06-27T17:43:17.018Z,2.20
2019-06-27T17:45:45.229Z,2.50
2019-06-27T17:48:13.392Z,2.17
2019-06-27T17:50:41.580Z,2.50
2019-06-27T17:53:09.754Z,2.20
2019-06-27T17:55:38.033Z,2.20
2019-06-27T17:58:06.252Z,2.30
2019-06-27T18:00:34.430Z,2.40
2019-06-27T18:03:02.672Z,2.70
2019-06-27T18:05:31.754Z,2.20
2019-06-27T18:07:59.945Z,2.27
2019-06-27T18:10:29.041Z,2.40
2019-06-27T18:12:58.149Z,2.23
2019-06-27T18:15:26.352Z,1.80
2019-06-27T18:17:54.588Z,2.17
2019-06-27T18:20:23.686Z,2.27
2019-06-27T18:22:52.791Z,2.30
2019-06-27T18:25:20.989Z,2.00
2019-06-27T18:27:49.171Z,2.43
2019-06-27T18:30:17.557Z,2.10
2019-06-27T18:32:45.756Z,2.00
2019-06-27T18:35:13.963Z,2.30
2019-06-27T18:37:43.054Z,2.60
2019-06-27T18:40:11.318Z,2.57
2019-06-27T18:42:39.518Z,2.50
2019-06-27T18:45:08.844Z,2.50
2019-06-27T18:47:37.061Z,2.57
2019-06-27T18:50:06.523Z,2.55
2019-06-27T18:52:34.721Z,3.07
2019-06-27T18:55:02.896Z,2.60
2019-06-27T18:57:31.076Z,2.63
2019-06-27T18:59:59.316Z,3.07
2019-06-27T19:02:28.461Z,3.60
2019-06-27T19:04:56.631Z,3.07
2019-06-27T19:07:24.833Z,3.80
2019-06-27T19:09:52.999Z,4.00
2019-06-27T19:12:21.211Z,5.30
2019-06-27T19:14:49.408Z,4.97
2019-06-27T19:17:17.597Z,4.07
2019-06-27T19:19:50.363Z,3.53
2019-06-27T19:22:23.144Z,3.30
2019-06-27T19:24:52.956Z,3.40
2019-06-27T19:27:21.127Z,3.43
2019-06-27T19:29:49.312Z,3.17
2019-06-27T19:32:17.500Z,3.47
2019-06-27T19:34:45.696Z,3.20
2019-06-27T19:37:13.921Z,3.57
2019-06-27T19:39:42.129Z,3.73
2019-06-27T19:42:10.300Z,3.50
2019-06-27T19:44:38.509Z,3.70
2019-06-27T19:47:06.705Z,3.20
2019-06-27T19:49:34.897Z,3.33
2019-06-27T19:52:03.116Z,3.40
2019-06-27T19:54:31.347Z,3.00
2019-06-27T19:56:59.596Z,3.57
2019-06-27T19:59:27.798Z,3.00
2019-06-27T20:01:56.028Z,3.20
2019-06-27T20:04:24.293Z,3.43
2019-06-27T20:06:52.465Z,3.43
2019-06-27T20:09:20.674Z,3.10
2019-06-27T20:11:48.889Z,3.30
2019-06-27T20:14:18.327Z,3.30
2019-06-27T20:16:46.532Z,3.80
2019-06-27T20:19:14.737Z,3.07
2019-06-27T20:21:42.934Z,3.10
2019-06-27T20:24:11.109Z,3.47
2019-06-27T20:26:39.295Z,3.60
2019-06-27T20:29:07.476Z,3.80
2019-06-27T20:31:35.661Z,3.10
2019-06-27T20:34:03.829Z,3.43
2019-06-27T20:36:32.032Z,3.30
2019-06-27T20:39:01.194Z,3.27
2019-06-27T20:41:29.577Z,3.33
2019-06-27T20:43:57.851Z,3.20
2019-06-27T20:46:26.073Z,3.53
2019-06-27T20:48:54.240Z,3.53
2019-06-27T20:51:22.428Z,3.07
2019-06-27T20:53:50.645Z,3.33
2019-06-27T20:56:18.812Z,3.13
2019-06-27T20:58:46.996Z,3.27
2019-06-27T21:01:15.170Z,3.07
2019-06-27T21:03:43.384Z,3.10
2019-06-27T21:06:11.555Z,3.20
2019-06-27T21:08:50.869Z,2.90
2019-06-27T21:11:09.632Z,3.30
2019-06-27T21:13:37.828Z,3.23
2019-06-27T21:16:06.025Z,3.37
2019-06-27T21:18:35.134Z,3.40
2019-06-27T21:21:03.627Z,3.20
2019-06-27T21:23:32.103Z,3.20
2019-06-27T21:26:00.309Z,3.17
2019-06-27T21:28:28.488Z,3.57
2019-06-27T21:30:56.667Z,3.27
2019-06-27T21:35:52.884Z,3.27
2019-06-27T21:38:21.064Z,3.30
2019-06-27T21:40:49.307Z,3.20
2019-06-27T21:43:17.509Z,3.40
2019-06-27T21:45:45.741Z,3.20
2019-06-27T21:48:13.924Z,3.50
2019-06-27T21:50:42.204Z,3.15
2019-06-27T21:53:10.381Z,3.30
2019-06-27T21:55:38.701Z,3.67
2019-06-27T21:58:07.064Z,3.50
2019-06-27T22:00:36.867Z,3.40
2019-06-27T22:03:05.161Z,3.63
2019-06-27T22:05:33.396Z,3.57
2019-06-27T22:08:01.610Z,3.90
2019-06-27T22:10:29.783Z,3.57
2019-06-27T22:12:57.974Z,3.90
2019-06-27T22:15:26.257Z,3.90
2019-06-27T22:17:54.474Z,3.90
2019-06-27T22:20:22.948Z,4.13
2019-06-27T22:22:51.173Z,3.83
2019-06-27T22:25:19.393Z,3.90
2019-06-27T22:27:47.559Z,3.90
2019-06-27T22:30:16.012Z,3.90
2019-06-27T22:32:44.357Z,4.00
2019-06-27T22:35:12.634Z,3.60
2019-06-27T22:37:59.069Z,3.80
2019-06-27T22:40:45.449Z,3.40
2019-06-27T22:43:31.997Z,3.90
2019-06-27T22:46:18.509Z,3.90
2019-06-27T22:48:46.869Z,3.70
2019-06-27T22:51:25.818Z,4.20
2019-06-27T22:53:55.670Z,3.40
2019-06-27T22:56:23.848Z,3.90
2019-06-27T22:58:52.093Z,3.90
2019-06-27T23:01:20.296Z,3.63
2019-06-27T23:03:48.499Z,4.10
2019-06-27T23:06:16.670Z,3.70
2019-06-27T23:08:44.910Z,4.23
2019-06-27T23:11:13.181Z,3.73
2019-06-27T23:13:41.407Z,3.83
2019-06-27T23:16:09.580Z,4.07
2019-06-27T23:18:37.816Z,3.50
2019-06-27T23:21:05.985Z,3.70
2019-06-27T23:23:34.168Z,4.17
2019-06-27T23:26:02.364Z,3.93
2019-06-27T23:28:30.566Z,4.00
2019-06-27T23:30:58.781Z,3.70
2019-06-27T23:33:26.948Z,4.10
2019-06-27T23:35:57.829Z,4.37
2019-06-27T23:38:26.069Z,3.40
2019-06-27T23:40:54.252Z,4.20
2019-06-27T23:43:22.461Z,3.80
2019-06-27T23:45:50.682Z,4.20
2019-06-27T23:48:18.880Z,4.10
2019-06-27T23:50:47.080Z,4.20
2019-06-27T23:53:15.321Z,3.93
2019-06-27T23:55:43.522Z,4.27
2019-06-27T23:58:11.720Z,4.30
